Time;durP1;ratioP1;P1;durP2;ratioP2;P2;SDS_P1;SDS_P2;PMS_P1;PMS_P2;Temp;Humidity;BMP_temperature;BMP_pressure;BME280_temperature;BME280_humidity;BME280_pressure;Samples;Min_cycle;Max_cycle;Signal;HPM_P1;HPM_P2
2022/03/22 00:01:47;;;;;;;24.13;10.23;;;4.10;56.70;;;;;;4967576;28;20034;-78
2022/03/22 00:04:13;;;;;;;27.92;10.00;;;4.10;56.80;;;;;;4988917;28;20064;-77
2022/03/22 00:06:39;;;;;;;30.33;10.25;;;4.10;56.80;;;;;;5000486;28;20491;-77
2022/03/22 00:09:04;;;;;;;28.50;9.95;;;4.10;56.90;;;;;;4979246;28;20169;-79
2022/03/22 00:11:30;;;;;;;20.08;10.43;;;4.10;56.90;;;;;;4978379;28;20057;-79
2022/03/22 00:13:55;;;;;;;18.33;9.68;;;4.00;56.90;;;;;;4967777;28;20027;-78
2022/03/22 00:16:21;;;;;;;26.48;10.48;;;4.00;56.90;;;;;;4946910;28;20029;-79
2022/03/22 00:18:47;;;;;;;20.65;9.93;;;4.00;57.00;;;;;;4996602;28;20121;-77
2022/03/22 00:21:12;;;;;;;23.65;9.98;;;4.00;57.00;;;;;;4995047;28;20037;-78
2022/03/22 00:23:38;;;;;;;25.55;9.15;;;3.90;57.20;;;;;;4967474;28;20076;-79
2022/03/22 00:26:03;;;;;;;20.45;10.45;;;3.90;57.20;;;;;;4985692;28;20042;-79
2022/03/22 00:28:30;;;;;;;22.17;9.95;;;3.90;57.30;;;;;;4983702;28;20054;-78
2022/03/22 00:30:56;;;;;;;22.55;9.32;;;3.90;57.40;;;;;;4980853;28;20434;-78
2022/03/22 00:33:22;;;;;;;20.73;9.45;;;3.90;57.40;;;;;;4945297;28;20546;-78
2022/03/22 00:35:49;;;;;;;19.95;9.50;;;3.80;57.40;;;;;;4975265;28;20046;-79
2022/03/22 00:38:16;;;;;;;14.63;8.77;;;3.80;57.50;;;;;;4965162;28;20030;-78
2022/03/22 00:40:42;;;;;;;15.88;9.45;;;3.70;57.50;;;;;;5004384;28;20515;-77
2022/03/22 00:43:08;;;;;;;17.48;9.55;;;3.70;57.60;;;;;;4988893;28;20547;-78
2022/03/22 00:45:34;;;;;;;20.88;8.60;;;3.70;57.70;;;;;;5009523;28;20042;-77
2022/03/22 00:48:01;;;;;;;20.45;9.23;;;3.70;57.80;;;;;;4954245;28;20046;-76
2022/03/22 00:50:29;;;;;;;17.40;9.13;;;3.70;57.80;;;;;;4982110;28;20124;-79
2022/03/22 00:52:55;;;;;;;23.27;9.95;;;3.60;57.90;;;;;;4963104;28;20053;-77
2022/03/22 00:55:23;;;;;;;18.23;9.57;;;3.60;58.00;;;;;;4965243;28;20042;-77
2022/03/22 00:57:48;;;;;;;20.60;9.35;;;3.60;58.00;;;;;;4974907;28;21684;-77
2022/03/22 01:00:14;;;;;;;20.15;9.40;;;3.60;58.00;;;;;;4981434;28;20041;-79
2022/03/22 01:02:41;;;;;;;21.52;9.70;;;3.50;58.00;;;;;;4964919;28;20101;-79
2022/03/22 01:05:13;;;;;;;27.40;10.18;;;3.50;58.10;;;;;;4964550;28;20057;-78
2022/03/22 01:07:39;;;;;;;;;;;3.50;58.20;;;;;;4974054;28;20046;-77
2022/03/22 01:10:06;;;;;;;22.60;8.88;;;3.50;58.00;;;;;;4990312;28;19917;-77
2022/03/22 01:12:34;;;;;;;23.42;9.35;;;3.50;57.90;;;;;;4951829;28;20120;-77
2022/03/22 01:14:59;;;;;;;20.00;9.38;;;3.50;58.10;;;;;;4976473;28;20041;-79
2022/03/22 01:17:25;;;;;;;17.45;8.90;;;3.40;58.20;;;;;;4983572;28;20035;-78
2022/03/22 01:19:51;;;;;;;24.38;9.35;;;3.40;58.30;;;;;;4950765;28;20033;-77
2022/03/22 01:22:17;;;;;;;24.60;10.20;;;3.30;58.50;;;;;;4996754;28;20605;-76
2022/03/22 01:24:43;;;;;;;24.05;10.38;;;3.40;58.50;;;;;;4987769;28;20038;-78
2022/03/22 01:27:09;;;;;;;24.85;10.15;;;3.30;58.50;;;;;;5020609;28;20057;-79
2022/03/22 01:29:35;;;;;;;29.00;9.80;;;3.30;58.60;;;;;;4976690;28;20053;-78
2022/03/22 01:32:00;;;;;;;20.92;10.10;;;3.30;58.60;;;;;;4972590;28;20096;-79
2022/03/22 01:34:26;;;;;;;18.95;10.05;;;3.20;58.70;;;;;;4991133;28;20049;-78
2022/03/22 01:36:52;;;;;;;25.90;9.77;;;3.20;58.70;;;;;;4992675;28;20044;-77
2022/03/22 01:39:17;;;;;;;17.80;9.68;;;3.20;58.80;;;;;;4975378;28;20704;-77
2022/03/22 01:41:43;;;;;;;15.48;8.88;;;3.20;58.80;;;;;;4975633;28;20046;-77
2022/03/22 01:44:09;;;;;;;19.75;9.40;;;3.10;58.90;;;;;;4953518;28;20046;-77
2022/03/22 01:46:35;;;;;;;28.90;10.85;;;3.10;59.00;;;;;;5012622;28;20125;-78
2022/03/22 01:49:01;;;;;;;16.17;9.35;;;3.10;59.00;;;;;;5001666;28;20144;-76
2022/03/22 01:51:27;;;;;;;19.33;8.98;;;3.00;59.00;;;;;;4981033;28;20569;-79
2022/03/22 01:53:52;;;;;;;18.05;9.82;;;3.00;59.10;;;;;;4982791;28;20038;-77
2022/03/22 01:56:18;;;;;;;14.70;9.05;;;3.00;59.30;;;;;;4965602;28;20768;-77
2022/03/22 01:58:43;;;;;;;15.80;9.45;;;2.90;59.30;;;;;;4958677;28;20344;-78
2022/03/22 02:06:37;;;;;;;16.00;9.02;;;2.90;59.40;;;;;;4966904;28;20040;-77
2022/03/22 02:09:03;;;;;;;18.65;10.60;;;2.80;59.40;;;;;;4950430;28;20042;-77
2022/03/22 02:11:29;;;;;;;16.13;9.45;;;2.80;59.60;;;;;;4979470;28;20031;-77
2022/03/22 02:13:54;;;;;;;17.92;9.40;;;2.80;59.70;;;;;;4956694;28;20665;-77
2022/03/22 02:16:21;;;;;;;20.40;9.38;;;2.80;59.80;;;;;;4997119;28;20030;-77
2022/03/22 02:18:47;;;;;;;14.43;8.80;;;2.80;59.80;;;;;;4982987;28;20476;-76
2022/03/22 02:21:14;;;;;;;17.95;9.63;;;2.70;59.90;;;;;;4974694;28;20092;-78
2022/03/22 02:23:51;;;;;;;14.90;9.07;;;2.70;60.00;;;;;;4983456;28;20060;-77
2022/03/22 02:26:20;;;;;;;20.27;9.40;;;2.70;60.20;;;;;;4974539;28;20041;-77
2022/03/22 02:28:46;;;;;;;15.52;9.32;;;2.70;59.90;;;;;;4967249;28;20033;-78
2022/03/22 02:31:13;;;;;;;17.58;8.90;;;2.70;60.90;;;;;;4973278;28;20038;-76
2022/03/22 02:33:42;;;;;;;13.77;8.85;;;2.60;60.20;;;;;;4993705;28;20046;-75
2022/03/22 02:36:08;;;;;;;19.63;9.77;;;2.60;60.30;;;;;;4960455;28;20438;-76
2022/03/22 02:38:33;;;;;;;17.45;8.77;;;2.60;60.20;;;;;;4992009;28;20035;-77
2022/03/22 02:40:59;;;;;;;16.48;9.32;;;2.50;60.30;;;;;;4951113;28;20080;-77
2022/03/22 02:43:24;;;;;;;18.42;9.60;;;2.50;60.40;;;;;;4983478;28;20198;-76
2022/03/22 02:45:50;;;;;;;16.90;9.77;;;2.50;60.40;;;;;;4983681;28;20030;-77
2022/03/22 02:48:17;;;;;;;18.33;10.07;;;2.50;60.40;;;;;;4965235;28;20049;-76
2022/03/22 02:50:43;;;;;;;16.33;8.60;;;2.50;60.40;;;;;;4994302;28;20072;-78
2022/03/22 02:53:09;;;;;;;14.85;9.35;;;2.40;60.60;;;;;;4973182;28;20073;-77
2022/03/22 02:55:34;;;;;;;17.90;10.15;;;2.30;60.60;;;;;;4981157;28;20034;-76
2022/03/22 02:58:00;;;;;;;15.60;9.05;;;2.30;60.60;;;;;;4975330;28;20031;-78
2022/03/22 03:00:26;;;;;;;14.98;8.88;;;2.30;60.80;;;;;;4964195;28;20030;-76
2022/03/22 03:02:53;;;;;;;14.18;8.82;;;2.30;61.00;;;;;;4968629;28;20031;-76
2022/03/22 03:05:19;;;;;;;16.75;9.18;;;2.20;61.10;;;;;;4953809;28;20034;-77
2022/03/22 03:07:44;;;;;;;18.48;9.23;;;2.20;61.20;;;;;;4979576;28;20040;-76
2022/03/22 03:10:10;;;;;;;18.13;9.32;;;2.20;61.30;;;;;;4979308;28;20034;-77
2022/03/22 03:12:35;;;;;;;19.45;10.00;;;2.20;61.30;;;;;;4996551;28;20038;-77
2022/03/22 03:15:01;;;;;;;17.88;9.93;;;2.20;61.40;;;;;;4984641;28;20022;-77
2022/03/22 03:17:27;;;;;;;15.27;9.07;;;2.20;61.40;;;;;;4968975;28;20698;-77
2022/03/22 03:19:53;;;;;;;16.58;9.63;;;2.10;61.40;;;;;;4996598;28;20129;-77
2022/03/22 03:22:18;;;;;;;17.67;10.05;;;2.10;61.50;;;;;;4968511;28;20029;-77
2022/03/22 03:24:44;;;;;;;18.77;9.30;;;2.10;61.50;;;;;;4961647;28;20552;-77
2022/03/22 03:27:09;;;;;;;14.00;9.10;;;2.00;61.50;;;;;;4956115;28;20121;-78
2022/03/22 03:29:35;;;;;;;15.18;9.00;;;2.00;61.70;;;;;;5015154;28;20180;-76
2022/03/22 03:32:00;;;;;;;17.73;9.50;;;2.00;61.70;;;;;;4979689;28;20022;-78
2022/03/22 03:34:26;;;;;;;18.35;9.20;;;2.00;61.80;;;;;;4981162;28;20038;-78
2022/03/22 03:36:51;;;;;;;17.63;9.93;;;2.00;61.80;;;;;;4993453;28;20056;-77
2022/03/22 03:39:17;;;;;;;15.65;9.52;;;1.90;61.80;;;;;;4980942;28;20219;-76
2022/03/22 03:41:55;;;;;;;16.00;8.98;;;1.90;61.90;;;;;;4985235;28;20089;-77
2022/03/22 03:47:11;;;;;;;16.42;8.98;;;1.90;62.00;;;;;;4981327;28;20051;-78
2022/03/22 03:49:41;;;;;;;15.20;9.25;;;1.80;62.80;;;;;;4996500;28;20542;-77
2022/03/22 03:52:09;;;;;;;15.82;9.77;;;1.80;62.20;;;;;;4982123;28;20049;-76
2022/03/22 03:54:35;;;;;;;14.73;9.43;;;1.80;62.20;;;;;;4981937;28;20125;-78
2022/03/22 03:57:00;;;;;;;14.75;9.35;;;1.80;62.20;;;;;;5000116;28;20168;-76
2022/03/22 03:59:26;;;;;;;17.25;9.00;;;1.80;62.20;;;;;;4983164;28;20038;-78
2022/03/22 04:01:51;;;;;;;19.65;9.48;;;1.70;63.10;;;;;;4982261;28;20462;-76
2022/03/22 04:04:17;;;;;;;16.52;9.27;;;1.70;62.30;;;;;;4976353;28;20407;-77
2022/03/22 04:06:42;;;;;;;15.48;9.02;;;1.70;62.30;;;;;;5004863;28;20503;-78
2022/03/22 04:09:08;;;;;;;17.23;9.48;;;1.70;62.50;;;;;;4980282;28;20059;-78
2022/03/22 04:11:33;;;;;;;18.08;8.80;;;1.60;62.60;;;;;;4966200;28;20033;-79
2022/03/22 04:13:59;;;;;;;17.13;9.48;;;1.60;62.60;;;;;;4935396;28;20798;-77
2022/03/22 04:16:25;;;;;;;14.48;8.93;;;1.60;62.70;;;;;;4994894;28;20031;-76
2022/03/22 04:18:50;;;;;;;17.52;8.77;;;1.60;62.80;;;;;;4961911;28;20410;-76
2022/03/22 04:21:16;;;;;;;17.55;9.70;;;1.60;62.90;;;;;;4953784;28;20384;-76
2022/03/22 04:23:41;;;;;;;14.55;9.68;;;1.50;62.90;;;;;;4995602;28;20090;-76
2022/03/22 04:26:07;;;;;;;18.75;9.77;;;1.50;62.90;;;;;;4981051;28;20705;-76
2022/03/22 04:34:01;;;;;;;17.55;9.88;;;1.50;63.10;;;;;;5006660;28;20465;-76
2022/03/22 04:36:28;;;;;;;16.98;9.98;;;1.50;63.10;;;;;;4988483;28;20027;-76
2022/03/22 04:38:54;;;;;;;15.40;9.35;;;1.50;63.10;;;;;;4967242;28;20462;-77
2022/03/22 04:41:20;;;;;;;14.45;9.18;;;1.40;63.10;;;;;;4964450;28;20040;-76
2022/03/22 04:43:46;;;;;;;15.43;9.25;;;1.40;63.20;;;;;;4980246;28;20066;-75
2022/03/22 04:46:11;;;;;;;15.10;9.05;;;1.40;63.30;;;;;;4998690;28;20490;-76
2022/03/22 04:48:37;;;;;;;16.10;9.35;;;1.40;63.40;;;;;;4972940;28;20035;-77
2022/03/22 04:56:43;;;;;;;15.80;9.40;;;1.30;63.50;;;;;;4995053;28;20796;-77
2022/03/22 04:59:09;;;;;;;14.32;8.82;;;1.30;63.50;;;;;;5010193;28;20080;-80
2022/03/22 05:01:35;;;;;;;17.23;9.77;;;1.20;63.60;;;;;;4994662;28;20036;-77
2022/03/22 05:04:00;;;;;;;15.07;9.65;;;1.20;63.70;;;;;;4976379;28;20111;-77
2022/03/22 05:06:26;;;;;;;18.45;9.77;;;1.20;63.80;;;;;;4988294;28;20039;-77
2022/03/22 05:08:54;;;;;;;19.83;10.20;;;1.20;63.80;;;;;;4980353;28;20030;-76
2022/03/22 05:11:23;;;;;;;18.55;10.48;;;1.20;64.00;;;;;;4999557;28;20050;-77
2022/03/22 05:13:49;;;;;;;23.75;10.35;;;1.20;64.10;;;;;;4977532;28;20069;-73
2022/03/22 05:16:17;;;;;;;17.02;9.57;;;1.20;63.90;;;;;;4999043;28;20062;-75
2022/03/22 05:18:42;;;;;;;18.65;10.02;;;1.20;64.00;;;;;;4986061;28;20091;-78
2022/03/22 05:21:08;;;;;;;16.63;9.48;;;1.10;64.00;;;;;;4974951;28;20028;-78
2022/03/22 05:23:34;;;;;;;18.52;9.25;;;1.10;64.00;;;;;;4985174;28;20075;-77
2022/03/22 05:25:59;;;;;;;16.08;9.50;;;1.10;64.10;;;;;;4965573;28;20552;-76
2022/03/22 05:28:25;;;;;;;16.17;9.80;;;1.00;64.10;;;;;;4977132;28;20025;-78
2022/03/22 05:30:50;;;;;;;14.38;9.00;;;1.00;64.10;;;;;;4986209;28;20034;-76
2022/03/22 05:33:16;;;;;;;19.10;10.07;;;1.00;64.20;;;;;;4967035;28;20072;-77
2022/03/22 05:35:41;;;;;;;18.80;8.85;;;1.00;64.30;;;;;;4984875;28;20058;-76
2022/03/22 05:38:07;;;;;;;15.35;9.07;;;0.90;64.30;;;;;;4971942;28;20089;-77
2022/03/22 05:40:33;;;;;;;17.58;10.20;;;0.90;64.40;;;;;;4985304;28;20081;-77
2022/03/22 05:42:58;;;;;;;16.05;9.85;;;0.90;64.60;;;;;;4987985;28;20409;-76
2022/03/22 05:45:26;;;;;;;19.20;9.63;;;0.90;64.60;;;;;;4958890;28;20035;-75
2022/03/22 05:47:52;;;;;;;17.45;9.82;;;0.90;64.70;;;;;;4969012;28;20037;-75
2022/03/22 05:50:18;;;;;;;16.42;8.30;;;0.90;64.70;;;;;;4965030;28;20029;-76
2022/03/22 05:52:49;;;;;;;14.88;8.98;;;0.80;64.70;;;;;;4975123;28;20038;-78
2022/03/22 05:55:14;;;;;;;;;;;0.90;65.00;;;;;;4984249;28;20506;-77
2022/03/22 05:57:40;;;;;;;15.18;9.23;;;0.80;64.70;;;;;;4960057;28;19916;-77
2022/03/22 06:00:06;;;;;;;20.13;9.65;;;0.80;64.50;;;;;;4954997;28;20154;-77
2022/03/22 06:02:35;;;;;;;14.18;9.50;;;0.80;64.80;;;;;;4995475;28;20089;-77
2022/03/22 06:05:00;;;;;;;19.15;10.00;;;0.80;64.80;;;;;;4985184;28;20038;-77
2022/03/22 06:07:26;;;;;;;26.27;15.38;;;0.90;64.90;;;;;;5002388;28;20754;-76
2022/03/22 06:09:51;;;;;;;24.13;13.63;;;0.90;64.90;;;;;;4984619;28;20058;-77
2022/03/22 06:12:19;;;;;;;16.02;9.40;;;0.90;65.00;;;;;;4974082;28;20041;-76
2022/03/22 06:14:44;;;;;;;21.98;10.40;;;0.90;65.00;;;;;;4967451;28;20112;-76
2022/03/22 06:17:10;;;;;;;17.02;9.45;;;0.90;65.10;;;;;;5001747;28;20038;-76
2022/03/22 06:19:36;;;;;;;19.40;11.40;;;0.90;65.10;;;;;;4982106;28;20057;-77
2022/03/22 06:22:01;;;;;;;22.85;10.65;;;1.00;65.20;;;;;;4980748;28;20060;-76
2022/03/22 06:24:27;;;;;;;20.95;11.75;;;1.00;65.20;;;;;;4969462;28;20184;-76
2022/03/22 06:26:52;;;;;;;21.25;12.02;;;1.10;65.30;;;;;;4978553;28;20429;-76
2022/03/22 06:29:18;;;;;;;26.15;13.68;;;1.10;65.40;;;;;;5001636;28;20042;-76
2022/03/22 06:31:44;;;;;;;32.65;15.95;;;1.10;65.40;;;;;;4981789;28;20045;-76
2022/03/22 06:34:09;;;;;;;38.05;20.98;;;1.20;65.50;;;;;;4967924;28;20039;-77
2022/03/22 06:36:35;;;;;;;26.35;15.68;;;1.20;65.40;;;;;;4982686;28;20040;-76
2022/03/22 06:39:00;;;;;;;24.63;13.40;;;1.30;65.50;;;;;;4969329;28;20164;-77
2022/03/22 06:41:26;;;;;;;28.17;14.82;;;1.30;65.50;;;;;;4993123;28;20041;-76
2022/03/22 06:43:51;;;;;;;25.70;14.23;;;1.40;65.60;;;;;;4974656;28;20450;-77
2022/03/22 06:46:18;;;;;;;27.25;14.50;;;1.50;65.60;;;;;;4966964;28;20034;-76
2022/03/22 06:48:43;;;;;;;34.42;17.75;;;1.60;65.70;;;;;;4996760;28;20531;-76
2022/03/22 06:51:09;;;;;;;37.03;18.17;;;1.60;65.60;;;;;;4993762;28;20041;-77
2022/03/22 06:53:34;;;;;;;30.88;16.75;;;1.70;65.70;;;;;;4989239;28;20142;-76
2022/03/22 06:56:00;;;;;;;30.95;17.48;;;1.80;65.70;;;;;;4992498;28;20579;-76
2022/03/22 06:58:27;;;;;;;33.75;19.05;;;1.90;65.70;;;;;;4975805;28;20503;-76
2022/03/22 07:00:55;;;;;;;36.17;18.10;;;2.00;65.70;;;;;;5000006;28;20037;-77
2022/03/22 07:03:20;;;;;;;35.38;18.88;;;2.10;65.70;;;;;;4960167;28;20517;-77
2022/03/22 07:05:46;;;;;;;32.72;19.33;;;2.20;65.70;;;;;;4999987;28;20046;-77
2022/03/22 07:08:12;;;;;;;35.40;20.65;;;2.30;65.80;;;;;;4982293;28;20042;-76
2022/03/22 07:10:38;;;;;;;33.40;19.85;;;2.40;65.80;;;;;;4987185;28;20040;-76
2022/03/22 07:13:08;;;;;;;37.85;20.27;;;2.50;65.80;;;;;;4990191;28;20049;-76
2022/03/22 07:15:35;;;;;;;35.47;18.92;;;2.60;65.80;;;;;;4964850;28;20562;-76
2022/03/22 07:18:07;;;;;;;31.45;18.00;;;2.70;65.80;;;;;;4986074;28;20465;-77
2022/03/22 07:20:33;;;;;;;27.77;16.58;;;2.80;65.80;;;;;;4970646;28;20057;-76
2022/03/22 07:22:59;;;;;;;32.75;17.33;;;2.90;65.60;;;;;;4995485;28;20398;-76
2022/03/22 07:25:24;;;;;;;28.90;16.88;;;3.00;65.50;;;;;;4951633;28;20041;-77
2022/03/22 07:27:50;;;;;;;29.60;15.07;;;3.10;65.50;;;;;;4983732;28;20033;-77
2022/03/22 07:30:16;;;;;;;32.00;14.98;;;3.30;65.50;;;;;;4973571;28;20030;-77
2022/03/22 07:32:44;;;;;;;23.90;14.27;;;3.40;65.50;;;;;;4978037;28;20049;-77
2022/03/22 07:35:10;;;;;;;24.63;14.27;;;3.60;65.60;;;;;;4967417;28;20034;-77
2022/03/22 07:37:36;;;;;;;29.23;14.73;;;3.70;65.60;;;;;;4977114;28;20035;-77
2022/03/22 07:40:03;;;;;;;22.35;12.70;;;3.90;65.70;;;;;;4993899;28;20050;-77
2022/03/22 07:42:29;;;;;;;24.25;12.75;;;4.00;65.50;;;;;;5003005;28;20046;-77
2022/03/22 07:44:56;;;;;;;25.23;13.00;;;4.30;65.60;;;;;;4993711;28;20101;-77
2022/03/22 07:47:22;;;;;;;24.02;12.48;;;4.40;65.50;;;;;;4997136;28;20052;-77
2022/03/22 07:55:16;;;;;;;23.63;12.63;;;5.00;65.20;;;;;;4980021;28;20096;-77
2022/03/22 07:57:42;;;;;;;20.73;11.35;;;5.20;64.80;;;;;;4978602;28;20046;-77
2022/03/22 08:00:08;;;;;;;24.10;12.13;;;5.40;64.40;;;;;;4968418;28;20101;-77
2022/03/22 08:02:36;;;;;;;20.52;11.77;;;5.50;64.00;;;;;;4980914;28;20038;-77
2022/03/22 08:05:04;;;;;;;18.48;10.15;;;5.60;63.70;;;;;;4968514;28;21421;-78
2022/03/22 08:07:30;;;;;;;18.80;10.15;;;5.80;63.60;;;;;;4997538;28;20052;-76
2022/03/22 08:09:56;;;;;;;23.38;10.75;;;5.90;63.50;;;;;;4986939;28;20463;-78
2022/03/22 08:12:21;;;;;;;17.67;11.23;;;6.20;63.40;;;;;;4962674;28;20044;-77
2022/03/22 08:14:47;;;;;;;17.52;10.60;;;6.30;63.10;;;;;;4972282;28;20046;-77
2022/03/22 08:17:12;;;;;;;18.17;11.38;;;6.60;63.00;;;;;;4987677;28;20092;-77
2022/03/22 08:19:38;;;;;;;22.00;10.85;;;6.80;62.80;;;;;;4983376;28;20038;-77
2022/03/22 08:22:05;;;;;;;19.02;11.15;;;7.00;62.50;;;;;;4989434;28;20037;-76
2022/03/22 08:24:31;;;;;;;15.75;10.02;;;7.20;62.30;;;;;;4978017;28;20046;-78
2022/03/22 08:26:56;;;;;;;18.90;10.13;;;7.50;62.10;;;;;;4980591;28;20045;-77
2022/03/22 08:29:22;;;;;;;17.60;10.35;;;7.70;61.80;;;;;;4968509;28;20037;-76
2022/03/22 08:31:47;;;;;;;14.60;9.07;;;7.90;61.40;;;;;;4977785;28;20078;-78
2022/03/22 08:34:13;;;;;;;14.32;9.10;;;8.20;61.00;;;;;;4984751;28;20058;-78
2022/03/22 08:36:38;;;;;;;15.02;9.30;;;8.40;60.70;;;;;;4994364;28;20494;-78
2022/03/22 08:39:04;;;;;;;21.98;10.77;;;8.70;60.40;;;;;;4987241;28;20041;-77
2022/03/22 08:41:31;;;;;;;15.93;9.45;;;8.90;60.00;;;;;;4982994;28;20062;-77
2022/03/22 08:43:56;;;;;;;15.95;8.73;;;9.10;59.50;;;;;;4962843;28;20035;-76
2022/03/22 08:46:24;;;;;;;17.13;9.88;;;9.30;59.00;;;;;;4977480;28;20530;-77
2022/03/22 08:48:51;;;;;;;17.73;9.93;;;9.50;58.60;;;;;;4998763;28;20042;-77
2022/03/22 08:51:18;;;;;;;13.75;9.20;;;9.60;58.10;;;;;;4984247;28;20042;-76
2022/03/22 08:53:44;;;;;;;13.25;8.45;;;9.90;57.90;;;;;;4955745;28;20066;-76
2022/03/22 08:56:10;;;;;;;15.13;9.52;;;10.10;57.60;;;;;;4989494;28;20065;-76
2022/03/22 08:58:35;;;;;;;17.80;8.93;;;10.30;57.60;;;;;;4985308;28;20668;-76
2022/03/22 09:01:01;;;;;;;14.98;8.43;;;10.50;57.20;;;;;;4989133;28;20118;-76
2022/03/22 09:03:28;;;;;;;13.20;8.50;;;10.80;56.90;;;;;;4975047;28;20037;-77
2022/03/22 09:06:11;;;;;;;15.60;8.52;;;11.00;56.50;;;;;;4986737;28;20514;-77
2022/03/22 09:08:40;;;;;;;13.35;7.40;;;11.30;56.00;;;;;;4970575;28;20041;-77
2022/03/22 09:11:06;;;;;;;9.73;6.72;;;11.50;55.50;;;;;;4973969;28;20042;-79
2022/03/22 09:13:33;;;;;;;13.35;7.20;;;11.80;55.10;;;;;;4962237;28;20038;-78
2022/03/22 09:15:58;;;;;;;17.05;8.13;;;12.00;54.60;;;;;;4968013;28;20116;-77
2022/03/22 09:18:25;;;;;;;10.15;6.65;;;12.30;54.20;;;;;;4966456;28;20133;-78
2022/03/22 09:20:50;;;;;;;10.63;6.43;;;12.50;53.50;;;;;;4983208;28;20121;-77
2022/03/22 09:23:17;;;;;;;9.68;7.03;;;12.70;52.90;;;;;;4943872;28;20547;-77
2022/03/22 09:25:43;;;;;;;10.57;7.35;;;12.90;52.50;;;;;;4949600;28;20043;-78
2022/03/22 09:28:10;;;;;;;9.90;7.28;;;13.10;51.50;;;;;;4983759;28;20048;-77
2022/03/22 09:30:36;;;;;;;11.32;7.35;;;13.10;50.90;;;;;;4986604;28;20540;-78
2022/03/22 09:33:03;;;;;;;8.95;6.93;;;13.30;50.70;;;;;;4985305;28;20042;-79
2022/03/22 09:35:29;;;;;;;10.35;6.78;;;13.50;50.40;;;;;;4975291;28;20036;-77
2022/03/22 09:37:55;;;;;;;9.25;6.18;;;13.60;50.30;;;;;;4976907;28;20045;-79
2022/03/22 09:40:22;;;;;;;11.10;7.45;;;13.80;50.10;;;;;;4982538;28;20573;-77
2022/03/22 09:42:48;;;;;;;10.70;6.65;;;14.10;49.70;;;;;;4983140;28;20088;-78
2022/03/22 09:45:20;;;;;;;9.48;6.95;;;14.20;49.00;;;;;;4966514;28;20037;-78
2022/03/22 09:47:45;;;;;;;9.20;6.47;;;14.40;48.90;;;;;;4978924;28;20057;-78
2022/03/22 09:50:12;;;;;;;10.25;6.70;;;14.70;48.60;;;;;;4981711;28;20713;-78
2022/03/22 09:52:38;;;;;;;12.88;7.05;;;14.90;48.20;;;;;;4958394;28;20030;-78
2022/03/22 09:55:04;;;;;;;10.98;7.38;;;15.20;48.00;;;;;;4982323;28;20045;-79
2022/03/22 09:57:30;;;;;;;8.75;6.80;;;15.30;47.40;;;;;;4963039;28;20038;-79
2022/03/22 09:59:55;;;;;;;13.65;7.53;;;15.50;47.00;;;;;;4979967;28;20469;-78
2022/03/22 10:02:28;;;;;;;11.63;7.75;;;15.70;46.70;;;;;;4991053;28;20395;-78
2022/03/22 10:04:53;;;;;;;10.73;7.07;;;15.90;45.70;;;;;;4984404;28;20041;-78
2022/03/22 10:07:20;;;;;;;10.10;7.05;;;16.10;45.70;;;;;;4957355;28;20037;-78
2022/03/22 10:10:03;;;;;;;11.50;7.03;;;16.30;45.40;;;;;;4965519;28;20559;-79
2022/03/22 10:12:32;;;;;;;8.55;7.03;;;16.50;44.50;;;;;;4981478;28;20726;-80
2022/03/22 10:15:10;;;;;;;10.07;6.63;;;16.60;44.60;;;;;;4955912;28;20036;-78
2022/03/22 10:17:36;;;;;;;9.15;6.85;;;16.80;43.50;;;;;;4997827;28;20149;-78
2022/03/22 10:20:05;;;;;;;14.02;7.15;;;17.00;44.10;;;;;;4982867;28;20121;-78
2022/03/22 10:22:31;;;;;;;9.40;7.43;;;17.10;44.30;;;;;;4973079;28;20038;-77
2022/03/22 10:24:58;;;;;;;10.18;7.03;;;17.20;42.80;;;;;;4980388;28;20042;-79
2022/03/22 10:27:28;;;;;;;12.95;6.50;;;17.20;42.70;;;;;;4962809;28;20630;-78
2022/03/22 10:29:55;;;;;;;9.30;6.70;;;17.40;42.50;;;;;;4967014;28;20041;-79
2022/03/22 10:32:40;;;;;;;10.05;7.28;;;17.70;43.20;;;;;;4988115;28;20117;-78
2022/03/22 10:35:19;;;;;;;12.90;6.97;;;17.90;40.90;;;;;;4983885;28;20062;-78
2022/03/22 10:37:54;;;;;;;10.02;6.13;;;18.10;41.10;;;;;;4979719;28;20035;-77
2022/03/22 10:40:27;;;;;;;9.90;6.70;;;18.30;41.10;;;;;;4962890;28;20034;-77
2022/03/22 10:43:05;;;;;;;9.40;6.72;;;18.50;40.80;;;;;;4961304;28;20052;-77
2022/03/22 10:45:52;;;;;;;9.85;6.45;;;18.70;40.20;;;;;;4985329;28;20041;-77
2022/03/22 10:48:23;;;;;;;9.73;6.38;;;18.90;39.40;;;;;;4947268;28;20510;-77
2022/03/22 10:50:49;;;;;;;15.37;6.00;;;19.20;39.80;;;;;;4965340;28;20129;-79
2022/03/22 10:53:15;;;;;;;9.23;6.93;;;19.40;39.80;;;;;;4964124;28;20342;-78
2022/03/22 10:55:41;;;;;;;8.82;6.25;;;19.60;39.20;;;;;;4960964;28;20027;-78
2022/03/22 10:58:06;;;;;;;7.68;6.25;;;19.80;39.00;;;;;;4981243;28;20036;-77
2022/03/22 11:00:32;;;;;;;8.93;6.18;;;20.00;38.50;;;;;;4996291;28;20136;-78
2022/03/22 11:03:00;;;;;;;9.65;6.70;;;20.20;37.90;;;;;;4968475;28;20026;-79
2022/03/22 11:05:27;;;;;;;11.45;6.80;;;20.30;37.50;;;;;;4990539;28;20022;-78
2022/03/22 11:07:53;;;;;;;10.05;6.70;;;20.50;37.60;;;;;;4980462;28;20101;-78
2022/03/22 11:10:20;;;;;;;9.15;6.15;;;20.60;37.10;;;;;;4962740;28;20037;-79
2022/03/22 11:12:46;;;;;;;8.05;6.45;;;20.70;37.00;;;;;;4978171;28;20484;-77
2022/03/22 11:15:13;;;;;;;8.55;6.47;;;20.80;36.80;;;;;;4984999;28;20584;-76
2022/03/22 11:17:38;;;;;;;9.73;5.95;;;20.90;36.80;;;;;;5008107;28;20117;-78
2022/03/22 11:20:06;;;;;;;7.45;5.95;;;21.10;36.60;;;;;;4995255;28;20516;-78
2022/03/22 11:22:32;;;;;;;8.30;5.93;;;21.30;36.60;;;;;;4965442;28;20062;-77
2022/03/22 11:25:06;;;;;;;8.32;6.10;;;21.40;36.30;;;;;;4942945;28;20066;-78
2022/03/22 11:27:32;;;;;;;12.98;6.55;;;21.60;35.50;;;;;;4992280;28;20030;-78
2022/03/22 11:29:57;;;;;;;9.25;6.05;;;21.70;35.80;;;;;;4963646;28;20033;-78
2022/03/22 11:35:13;;;;;;;9.07;6.10;;;22.00;35.40;;;;;;4980682;28;20650;-79
2022/03/22 11:37:40;;;;;;;8.90;6.63;;;22.10;35.20;;;;;;4982895;28;20058;-78
2022/03/22 11:43:00;;;;;;;9.35;5.93;;;22.40;34.70;;;;;;4975217;28;20536;-77
2022/03/22 11:45:26;;;;;;;7.95;6.07;;;22.50;34.40;;;;;;4955821;28;20050;-79
2022/03/22 11:47:53;;;;;;;8.68;6.60;;;22.60;34.20;;;;;;4990586;28;20041;-77
2022/03/22 11:50:20;;;;;;;7.57;5.78;;;22.70;34.00;;;;;;4948492;28;20037;-77
2022/03/22 11:52:48;;;;;;;6.97;5.35;;;22.90;33.60;;;;;;4982937;28;20132;-77
2022/03/22 11:55:24;;;;;;;9.27;6.25;;;23.00;33.50;;;;;;4965217;28;20403;-78
2022/03/22 11:57:55;;;;;;;7.88;5.38;;;23.20;32.50;;;;;;4994990;28;20042;-78
2022/03/22 12:00:42;;;;;;;7.93;5.45;;;23.40;32.30;;;;;;4979135;28;20616;-78
2022/03/22 12:03:11;;;;;;;7.25;5.68;;;23.50;32.70;;;;;;4992878;28;20048;-78
2022/03/22 12:05:37;;;;;;;6.72;5.93;;;23.60;32.20;;;;;;4971602;28;20081;-78
2022/03/22 12:08:10;;;;;;;6.30;5.68;;;23.70;32.00;;;;;;4988100;28;20150;-78
2022/03/22 12:10:35;;;;;;;5.85;5.25;;;23.80;31.20;;;;;;4954345;28;20049;-77
2022/03/22 12:13:01;;;;;;;7.75;5.45;;;23.90;31.60;;;;;;4961865;28;20030;-79
2022/03/22 12:15:27;;;;;;;7.35;5.25;;;24.10;31.50;;;;;;4982371;28;20048;-78
2022/03/22 12:17:52;;;;;;;8.57;5.38;;;24.20;31.40;;;;;;4966389;28;20080;-76
2022/03/22 12:20:19;;;;;;;8.00;5.40;;;24.40;31.10;;;;;;4985563;28;21091;-79
2022/03/22 12:22:56;;;;;;;8.98;5.63;;;24.50;30.70;;;;;;4982016;28;20043;-77
2022/03/22 12:25:25;;;;;;;7.30;5.90;;;24.60;30.10;;;;;;4983136;28;20034;-78
2022/03/22 12:28:06;;;;;;;5.75;5.13;;;24.70;29.90;;;;;;5013454;28;20035;-79
2022/03/22 12:30:33;;;;;;;8.23;4.55;;;24.80;29.60;;;;;;4962158;28;20104;-79
2022/03/22 12:33:03;;;;;;;6.05;5.35;;;24.90;30.00;;;;;;4981080;28;20305;-78
2022/03/22 12:35:29;;;;;;;7.43;5.00;;;25.00;30.00;;;;;;4956552;28;20064;-78
2022/03/22 12:37:55;;;;;;;7.15;5.30;;;25.20;30.00;;;;;;4967679;28;20161;-79
2022/03/22 12:40:21;;;;;;;6.43;5.45;;;25.20;29.80;;;;;;4980926;28;20449;-77
2022/03/22 12:42:50;;;;;;;9.48;5.78;;;25.20;29.40;;;;;;4982142;28;20109;-77
2022/03/22 12:45:16;;;;;;;9.73;4.65;;;25.30;29.10;;;;;;4972189;28;20652;-76
2022/03/22 12:47:42;;;;;;;11.77;5.95;;;25.40;29.10;;;;;;4984062;28;20454;-78
2022/03/22 12:50:08;;;;;;;6.32;5.38;;;25.40;29.10;;;;;;4985944;28;20034;-78
2022/03/22 12:52:34;;;;;;;5.95;5.03;;;25.50;28.80;;;;;;4960445;28;20038;-78
2022/03/22 12:55:00;;;;;;;6.00;5.10;;;25.60;28.80;;;;;;4971444;28;20041;-78
2022/03/22 12:57:26;;;;;;;5.10;4.60;;;25.60;28.70;;;;;;4985828;28;20031;-77
2022/03/22 12:59:51;;;;;;;7.40;5.38;;;25.60;28.60;;;;;;4960831;28;20580;-77
2022/03/22 13:02:18;;;;;;;7.07;5.72;;;25.60;28.40;;;;;;4989787;28;20093;-77
2022/03/22 13:04:47;;;;;;;7.72;5.25;;;25.70;28.20;;;;;;4950662;28;20055;-77
2022/03/22 13:07:23;;;;;;;7.18;4.68;;;25.80;28.00;;;;;;4961107;28;20046;-79
2022/03/22 13:12:36;;;;;;;5.75;4.65;;;25.60;28.00;;;;;;4978593;28;20046;-72
2022/03/22 13:15:06;;;;;;;5.25;4.75;;;25.70;28.20;;;;;;4977063;28;20057;-72